SABE

Jorge Newbery Airpark Airport

Buenos Aires, Argentina
TAF SABE 211700Z 2118/2218 04010KT CAVOK TX14/2218Z TN07/2210Z PROB30 2207/2212 34005KT 5000 BR BECMG 2212/2214 04015KT CAVOK
Issued Valid From Valid To
Aug-21 @ 17:00 UTC
(7 hours ago)
Aug-21 @ 18:00 UTC
(6 hours ago)
Aug-22 @ 18:00 UTC
(in 18 hours)
Aug-21 @ 18:00 to Aug-22 @ 12:00
TAF SABE 211700Z 2118/2218 04010KT CAVOK TX14/2218Z TN07/2210Z
Wind Visibility Clouds
40° at 10 knots 10,000+ meters
  • No significant clouds
Probable  (Probability 30%) Aug-22 @ 07:00 to Aug-22 @ 12:00
PROB30 2207/2212 34005KT 5000 BR
Wind Visibility Conditions
340° at 5 knots 5,005 meters
  • Mist
Becoming Aug-22 @ 12:00 to Aug-22 @ 18:00
BECMG 2212/2214 04015KT CAVOK
Wind Visibility Clouds Conditions
40° at 15 knots 10,000+ meters
  • No significant clouds
TAF SABE 211700Z 2118/2218 04010KT CAVOK TX14/2218Z TN07/2210Z PROB30 2207/2212 34005KT 5000 BR BECMG 2212/2214 04015KT CAVOK
Issued Aug-21 @ 17:00 UTC
(7 hours ago)
Valid From Aug-21 @ 18:00 UTC
(6 hours ago)
Valid To Aug-22 @ 18:00 UTC
(in 18 hours)
Aug-21 @ 18:00 - Aug-22 @ 12:00
Wind Visibility
40° at 10 knots 10,000+ meters
Clouds
  • No significant clouds
Probability 30% Probable Aug-22 @ 07:00 - Aug-22 @ 12:00
Wind Visibility
340° at 5 knots 5,005 meters
Conditions
  • Mist
Becoming Aug-22 @ 12:00 - Aug-22 @ 18:00
Wind Visibility
40° at 15 knots 10,000+ meters
Clouds
  • No significant clouds
Conditions